createdAt,value
2023-01-20T00:04:02.519Z,16.67
2023-01-20T00:09:05.378Z,16.64
2023-01-20T00:14:07.114Z,16.73
2023-01-20T00:19:12.167Z,16.69
2023-01-20T00:24:14.658Z,16.66
2023-01-20T00:29:16.477Z,16.67
2023-01-20T00:34:18.355Z,16.69
2023-01-20T00:39:20.053Z,16.67
2023-01-20T00:44:21.717Z,16.66
2023-01-20T00:49:23.460Z,16.67
2023-01-20T00:54:25.329Z,16.69
2023-01-20T00:59:27.319Z,16.69
2023-01-20T01:04:29.146Z,16.64
2023-01-20T01:09:32.551Z,16.63
2023-01-20T01:14:34.327Z,16.66
2023-01-20T01:19:35.996Z,16.65
2023-01-20T01:24:37.856Z,16.63
2023-01-20T01:29:39.668Z,16.67
2023-01-20T01:34:41.649Z,16.63
2023-01-20T01:39:43.320Z,16.68
2023-01-20T01:45:13.401Z,16.62
2023-01-20T01:50:21.538Z,16.63
2023-01-20T01:55:27.692Z,16.60
2023-01-20T02:00:29.821Z,16.65
2023-01-20T02:05:32.570Z,16.62
2023-01-20T02:10:34.229Z,16.65
2023-01-20T02:15:45.384Z,16.61
2023-01-20T02:20:54.503Z,16.60
2023-01-20T02:26:14.915Z,16.60
2023-01-20T02:31:50.082Z,16.55
2023-01-20T02:36:54.235Z,16.62
2023-01-20T02:42:01.559Z,16.58
2023-01-20T02:47:08.251Z,16.62
2023-01-20T02:52:21.090Z,16.59
2023-01-20T02:57:29.702Z,16.59
2023-01-20T03:02:36.162Z,16.60
2023-01-20T03:07:41.731Z,16.61
2023-01-20T03:13:02.992Z,16.57
2023-01-20T03:18:04.999Z,16.56
2023-01-20T03:23:06.955Z,16.59
2023-01-20T03:28:08.621Z,16.57
2023-01-20T03:33:12.048Z,16.63
2023-01-20T03:38:13.893Z,16.61
2023-01-20T03:43:45.715Z,16.56
2023-01-20T03:48:53.998Z,16.60
2023-01-20T03:54:04.052Z,16.54
2023-01-20T03:59:09.553Z,16.58
2023-01-20T04:04:18.092Z,16.55
2023-01-20T04:09:25.136Z,16.56
2023-01-20T04:14:26.835Z,16.56
2023-01-20T04:19:28.447Z,16.57
2023-01-20T04:25:20.807Z,16.51
2023-01-20T04:30:22.611Z,16.53
2023-01-20T04:35:24.444Z,16.62
2023-01-20T04:40:26.899Z,16.59
2023-01-20T04:45:28.570Z,16.54
2023-01-20T04:50:30.233Z,16.55
2023-01-20T04:55:33.353Z,16.51
2023-01-20T05:00:35.041Z,16.53
2023-01-20T05:05:36.720Z,16.57
2023-01-20T05:10:38.412Z,16.55
2023-01-20T05:15:40.677Z,16.54
2023-01-20T05:20:49.324Z,16.55
2023-01-20T05:25:52.057Z,16.56
2023-01-20T05:30:53.825Z,16.54
2023-01-20T05:35:56.128Z,16.54
2023-01-20T05:41:06.168Z,16.54
2023-01-20T05:46:07.917Z,16.54
2023-01-20T05:51:09.842Z,16.52
2023-01-20T05:56:16.366Z,16.53
2023-01-20T06:01:18.116Z,16.55
2023-01-20T06:06:19.873Z,16.52
2023-01-20T06:11:21.763Z,16.50
2023-01-20T06:16:23.942Z,16.52
2023-01-20T06:21:25.916Z,16.51
2023-01-20T06:26:27.623Z,16.54
2023-01-20T06:31:29.403Z,16.49
2023-01-20T06:36:31.082Z,16.50
2023-01-20T06:41:32.967Z,16.52
2023-01-20T06:46:34.794Z,16.48
2023-01-20T06:51:36.639Z,16.45
2023-01-20T06:56:38.316Z,16.49
2023-01-20T07:01:40.430Z,16.45
2023-01-20T07:06:42.631Z,16.48
2023-01-20T07:11:44.556Z,16.45
2023-01-20T07:16:46.805Z,16.46
2023-01-20T07:21:48.522Z,16.48
2023-01-20T07:26:52.813Z,16.45
2023-01-20T07:31:54.546Z,16.41
2023-01-20T07:36:56.293Z,16.41
2023-01-20T07:41:58.091Z,16.46
2023-01-20T07:46:59.913Z,16.43
2023-01-20T07:52:01.619Z,16.42
2023-01-20T07:57:03.283Z,16.43
2023-01-20T08:02:05.119Z,16.48
2023-01-20T08:07:07.007Z,16.44
2023-01-20T08:12:08.774Z,16.48
2023-01-20T08:17:10.526Z,16.49
2023-01-20T08:22:12.307Z,16.44
2023-01-20T08:27:13.997Z,16.45
2023-01-20T08:32:15.688Z,16.44
2023-01-20T08:37:17.726Z,16.47
2023-01-20T08:42:19.698Z,16.41
2023-01-20T08:47:21.392Z,16.41
2023-01-20T08:52:23.144Z,16.44
2023-01-20T08:57:26.598Z,16.40
2023-01-20T09:02:28.674Z,16.54
2023-01-20T09:07:30.507Z,16.23
2023-01-20T09:12:32.273Z,16.15
2023-01-20T09:17:37.105Z,16.34
2023-01-20T09:22:40.543Z,16.48
2023-01-20T09:27:42.220Z,16.52
2023-01-20T09:32:43.968Z,16.55
2023-01-20T09:38:03.959Z,16.52
2023-01-20T09:43:54.191Z,16.46
2023-01-20T09:49:32.290Z,16.46
2023-01-20T09:54:50.620Z,16.51
2023-01-20T10:00:03.222Z,16.48
2023-01-20T10:05:33.187Z,16.46
2023-01-20T10:10:46.742Z,16.49
2023-01-20T10:15:53.785Z,16.48
2023-01-20T10:20:58.426Z,16.50
2023-01-20T10:26:09.529Z,16.47
2023-01-20T10:31:15.032Z,16.48
2023-01-20T10:36:23.434Z,16.46
2023-01-20T10:41:31.352Z,16.50
2023-01-20T10:46:39.158Z,16.51
2023-01-20T10:51:52.816Z,16.52
2023-01-20T10:56:59.154Z,16.51
2023-01-20T11:02:18.645Z,16.45
2023-01-20T11:07:20.407Z,16.45
2023-01-20T11:12:28.927Z,16.49
2023-01-20T11:17:30.916Z,16.51
2023-01-20T11:22:36.671Z,16.60
2023-01-20T11:27:44.245Z,16.66
2023-01-20T11:32:46.030Z,16.60
2023-01-20T11:37:47.820Z,16.77
2023-01-20T11:42:51.776Z,16.61
2023-01-20T11:48:04.971Z,16.57
2023-01-20T11:53:12.580Z,16.53
2023-01-20T11:58:20.810Z,16.64
2023-01-20T12:03:31.717Z,16.60
2023-01-20T12:08:39.024Z,16.61
2023-01-20T12:14:25.752Z,16.52
2023-01-20T12:19:51.877Z,16.64
2023-01-20T12:25:10.749Z,16.57
2023-01-20T12:30:51.295Z,16.41
2023-01-20T12:36:07.922Z,16.44
2023-01-20T12:41:32.779Z,16.36
2023-01-20T12:46:41.882Z,16.32
2023-01-20T12:52:03.813Z,16.35
2023-01-20T12:57:47.359Z,16.36
2023-01-20T13:03:01.734Z,16.40
2023-01-20T13:08:36.954Z,16.42
2023-01-20T13:13:57.584Z,16.56
2023-01-20T13:19:08.924Z,16.58
2023-01-20T13:24:24.442Z,16.61
2023-01-20T13:29:35.159Z,16.53
2023-01-20T13:34:40.495Z,16.43
2023-01-20T13:39:52.202Z,16.31
2023-01-20T13:45:12.124Z,16.23
2023-01-20T13:50:30.807Z,16.26
2023-01-20T13:55:41.663Z,16.58
2023-01-20T14:00:44.634Z,16.56
2023-01-20T14:06:19.563Z,16.53
2023-01-20T14:11:22.660Z,16.54
2023-01-20T14:16:28.481Z,16.50
2023-01-20T14:21:41.580Z,16.45
2023-01-20T14:26:43.305Z,16.35
2023-01-20T14:31:46.297Z,16.39
2023-01-20T14:36:49.074Z,16.33
2023-01-20T14:41:59.242Z,16.30
2023-01-20T14:47:02.813Z,16.37
2023-01-20T14:52:06.122Z,16.39
2023-01-20T14:57:21.941Z,16.49
2023-01-20T15:02:30.451Z,16.50
2023-01-20T15:07:32.200Z,16.53
2023-01-20T15:12:47.395Z,16.54
2023-01-20T15:18:11.145Z,16.53
2023-01-20T15:23:21.398Z,16.51
2023-01-20T15:28:29.670Z,16.55
2023-01-20T15:33:31.469Z,16.51
2023-01-20T15:38:33.226Z,16.51
2023-01-20T15:43:34.881Z,16.54
2023-01-20T15:48:36.567Z,16.50
2023-01-20T15:53:38.205Z,16.49
2023-01-20T15:58:39.901Z,16.44
2023-01-20T16:03:41.936Z,16.48
2023-01-20T16:08:46.605Z,16.51
2023-01-20T16:13:48.518Z,16.46
2023-01-20T16:18:50.760Z,16.49
2023-01-20T16:23:52.496Z,16.50
2023-01-20T16:28:56.681Z,16.47
2023-01-20T16:33:58.509Z,16.56
2023-01-20T16:39:00.175Z,16.58
2023-01-20T16:44:02.046Z,16.52
2023-01-20T16:49:03.834Z,16.56
2023-01-20T16:54:05.690Z,16.54
2023-01-20T16:59:08.256Z,16.60
2023-01-20T17:04:11.018Z,16.60
2023-01-20T17:09:12.804Z,16.67
2023-01-20T17:14:15.758Z,16.65
2023-01-20T17:19:17.918Z,16.62
2023-01-20T17:24:19.605Z,16.56
2023-01-20T17:29:22.165Z,16.50
2023-01-20T17:34:24.009Z,16.51
2023-01-20T17:39:25.856Z,16.50
2023-01-20T17:44:27.605Z,16.50
2023-01-20T17:49:29.318Z,16.52
2023-01-20T17:54:31.491Z,16.54
2023-01-20T17:59:33.203Z,16.60
2023-01-20T18:04:34.875Z,16.77
2023-01-20T18:09:36.586Z,16.56
2023-01-20T18:14:38.840Z,16.74
2023-01-20T18:19:40.582Z,16.81
2023-01-20T18:24:42.334Z,16.78
2023-01-20T18:29:44.198Z,16.73
2023-01-20T18:34:45.991Z,16.71
2023-01-20T18:39:47.723Z,16.77
2023-01-20T18:44:49.524Z,16.80
2023-01-20T18:49:51.311Z,16.77
2023-01-20T18:54:53.292Z,16.77
2023-01-20T18:59:55.217Z,16.75
2023-01-20T19:04:56.870Z,16.88
2023-01-20T19:09:58.586Z,16.76
2023-01-20T19:15:00.267Z,16.47
2023-01-20T19:20:02.168Z,16.29
2023-01-20T19:25:03.992Z,16.34
2023-01-20T19:30:06.347Z,16.53
2023-01-20T19:35:09.254Z,16.87
2023-01-20T19:40:11.468Z,16.94
2023-01-20T19:45:13.436Z,16.88
2023-01-20T19:50:15.746Z,16.98
2023-01-20T19:55:17.646Z,17.00
2023-01-20T20:00:19.936Z,16.86
2023-01-20T20:05:21.691Z,16.94
2023-01-20T20:10:23.446Z,16.91
2023-01-20T20:15:25.191Z,16.84
2023-01-20T20:20:27.162Z,16.89
2023-01-20T20:25:28.893Z,16.98
2023-01-20T20:30:31.065Z,17.01
2023-01-20T20:35:35.824Z,16.91
2023-01-20T20:40:37.795Z,16.79
2023-01-20T20:45:39.509Z,16.96
2023-01-20T20:50:41.239Z,16.77
2023-01-20T20:55:43.003Z,16.92
2023-01-20T21:00:49.979Z,16.85
2023-01-20T21:05:51.705Z,16.89
2023-01-20T21:10:53.465Z,16.58
2023-01-20T21:16:00.633Z,16.58
2023-01-20T21:21:04.107Z,16.85
2023-01-20T21:26:11.937Z,16.83
2023-01-20T21:31:16.827Z,16.81
2023-01-20T21:36:18.577Z,16.84
2023-01-20T21:41:20.588Z,16.81
2023-01-20T21:46:23.880Z,16.74
2023-01-20T21:51:44.178Z,16.75
2023-01-20T21:56:46.239Z,16.73
2023-01-20T22:01:48.121Z,16.52
2023-01-20T22:06:49.899Z,15.96
2023-01-20T22:11:51.682Z,16.28
2023-01-20T22:16:53.380Z,16.07
2023-01-20T22:21:56.905Z,16.26
2023-01-20T22:26:58.817Z,16.34
2023-01-20T22:32:03.327Z,16.23
2023-01-20T22:37:05.000Z,16.41
2023-01-20T22:42:07.721Z,16.85
2023-01-20T22:47:11.018Z,16.76
2023-01-20T22:52:12.937Z,16.76
2023-01-20T22:57:15.221Z,16.72
2023-01-20T23:02:16.968Z,16.70
2023-01-20T23:07:18.965Z,16.77
2023-01-20T23:12:20.635Z,16.74
2023-01-20T23:17:22.364Z,16.70
2023-01-20T23:22:25.000Z,16.72
2023-01-20T23:27:26.711Z,16.71
2023-01-20T23:32:28.411Z,16.69
2023-01-20T23:37:30.352Z,16.67
2023-01-20T23:42:32.016Z,16.64
2023-01-20T23:47:33.946Z,16.64
2023-01-20T23:52:35.792Z,16.63
2023-01-20T23:57:37.462Z,16.63
